Terminal Aerodrome Forecast
Issued by NWS Green Bay, WI

Home | Current Version | Previous Version | Text Only | Print | Product List | Glossary On
Versions: 1 2 3 4 5 6 7 8 9 10 11 12 13 14 15 16 17 18 19 20
000
FTUS43 KGRB 232217 AAA
TAFGRB
TAF AMD
KGRB 232217Z 2322/2418 32006KT P6SM BKN045
     FM240000 01005KT P6SM SCT100
     FM240500 01005KT P6SM BKN090
     FM241400 02006KT P6SM SCT045=

USA.gov is the U.S. government's official web portal to all federal, state and local government web resources and services.